createdAt,value
2018-05-15T00:00:10.028Z,15.20
2018-05-15T00:02:37.482Z,15.10
2018-05-15T00:05:04.923Z,15.00
2018-05-15T00:07:33.142Z,15.00
2018-05-15T00:10:00.589Z,14.90
2018-05-15T00:12:28.038Z,15.00
2018-05-15T00:14:55.499Z,15.00
2018-05-15T00:17:22.935Z,15.00
2018-05-15T00:19:50.379Z,15.00
2018-05-15T00:22:17.908Z,15.10
2018-05-15T00:24:46.128Z,15.00
2018-05-15T00:27:13.591Z,15.00
2018-05-15T00:29:41.053Z,15.00
2018-05-15T00:32:08.511Z,15.50
2018-05-15T00:34:36.031Z,15.00
2018-05-15T00:37:03.403Z,14.90
2018-05-15T00:39:30.859Z,14.90
2018-05-15T00:41:58.310Z,15.00
2018-05-15T00:44:25.768Z,15.00
2018-05-15T00:46:53.235Z,15.00
2018-05-15T00:49:20.680Z,15.00
2018-05-15T00:51:48.148Z,15.00
2018-05-15T00:54:15.600Z,15.10
2018-05-15T00:56:43.042Z,15.10
2018-05-15T00:59:10.492Z,15.00
2018-05-15T01:01:37.942Z,15.00
2018-05-15T01:04:05.391Z,14.90
2018-05-15T01:06:32.849Z,14.80
2018-05-15T01:09:01.060Z,14.90
2018-05-15T01:11:28.511Z,14.90
2018-05-15T01:13:55.955Z,14.80
2018-05-15T01:16:23.415Z,14.90
2018-05-15T01:18:50.860Z,14.90
2018-05-15T01:21:18.315Z,14.90
2018-05-15T01:23:45.776Z,14.80
2018-05-15T01:26:13.227Z,14.80
2018-05-15T01:28:40.682Z,14.70
2018-05-15T01:31:08.136Z,14.70
2018-05-15T01:33:35.572Z,14.90
2018-05-15T01:36:03.793Z,14.70
2018-05-15T01:38:32.005Z,14.70
2018-05-15T01:40:59.455Z,14.60
2018-05-15T01:43:26.902Z,14.70
2018-05-15T01:45:54.356Z,14.60
2018-05-15T01:48:21.788Z,14.60
2018-05-15T01:50:49.229Z,14.40
2018-05-15T01:53:16.681Z,14.50
2018-05-15T01:55:44.139Z,14.40
2018-05-15T01:58:11.602Z,14.40
2018-05-15T02:00:39.059Z,14.30
2018-05-15T02:03:06.513Z,14.40
2018-05-15T02:05:33.961Z,14.50
2018-05-15T02:08:01.408Z,14.50
2018-05-15T02:10:29.630Z,14.50
2018-05-15T02:12:57.074Z,14.50
2018-05-15T02:15:24.532Z,14.60
2018-05-15T02:17:52.000Z,14.50
2018-05-15T02:20:19.446Z,14.50
2018-05-15T02:22:46.896Z,14.50
2018-05-15T02:25:14.357Z,14.60
2018-05-15T02:27:41.804Z,14.40
2018-05-15T02:30:09.265Z,14.50
2018-05-15T02:32:36.702Z,14.50
2018-05-15T02:35:04.146Z,14.60
2018-05-15T02:37:32.369Z,14.60
2018-05-15T02:39:59.813Z,14.50
2018-05-15T02:42:27.264Z,14.60
2018-05-15T02:44:54.714Z,14.50
2018-05-15T02:47:22.159Z,14.60
2018-05-15T02:49:49.608Z,14.60
2018-05-15T02:52:17.046Z,14.50
2018-05-15T02:54:45.264Z,14.50
2018-05-15T02:57:12.719Z,14.50
2018-05-15T02:59:40.165Z,14.60
2018-05-15T03:02:07.628Z,14.60
2018-05-15T03:04:35.080Z,14.60
2018-05-15T03:07:02.548Z,14.50
2018-05-15T03:09:29.991Z,14.40
2018-05-15T03:11:57.439Z,14.50
2018-05-15T03:14:24.886Z,14.50
2018-05-15T03:16:53.106Z,14.60
2018-05-15T03:19:20.550Z,14.50
2018-05-15T03:21:48.003Z,14.40
2018-05-15T03:24:15.451Z,14.40
2018-05-15T03:26:42.897Z,14.40
2018-05-15T03:29:10.353Z,14.40
2018-05-15T03:31:38.084Z,14.00
2018-05-15T03:34:06.309Z,14.30
2018-05-15T03:36:33.759Z,14.30
2018-05-15T03:39:01.206Z,14.40
2018-05-15T03:41:28.649Z,14.20
2018-05-15T03:43:56.863Z,14.20
2018-05-15T03:46:24.320Z,14.20
2018-05-15T03:48:51.779Z,14.20
2018-05-15T03:51:19.224Z,14.20
2018-05-15T03:53:46.683Z,14.10
2018-05-15T03:56:14.134Z,14.20
2018-05-15T03:58:41.570Z,14.20
2018-05-15T04:01:21.008Z,14.20
2018-05-15T04:04:01.271Z,14.10
2018-05-15T04:06:40.621Z,14.20
2018-05-15T04:09:08.070Z,14.10
2018-05-15T04:11:35.541Z,14.10
2018-05-15T04:14:02.991Z,14.10
2018-05-15T04:16:30.439Z,14.10
2018-05-15T04:18:57.903Z,14.20
2018-05-15T04:21:25.344Z,14.20
2018-05-15T04:23:52.809Z,14.10
2018-05-15T04:26:20.248Z,14.20
2018-05-15T04:28:48.475Z,14.20
2018-05-15T04:31:15.928Z,14.10
2018-05-15T04:33:43.380Z,14.00
2018-05-15T04:36:10.882Z,14.00
2018-05-15T04:38:38.335Z,14.00
2018-05-15T04:41:05.775Z,14.20
2018-05-15T04:43:33.367Z,13.90
2018-05-15T04:46:00.779Z,14.00
2018-05-15T04:48:28.239Z,13.80
2018-05-15T04:50:55.689Z,13.80
2018-05-15T04:53:23.163Z,13.90
2018-05-15T04:55:50.610Z,13.90
2018-05-15T04:58:18.075Z,14.00
2018-05-15T05:00:45.523Z,14.10
2018-05-15T05:03:12.995Z,14.10
2018-05-15T05:05:40.442Z,14.20
2018-05-15T05:08:08.662Z,14.20
2018-05-15T05:10:36.110Z,14.20
2018-05-15T05:13:04.329Z,14.30
2018-05-15T05:15:32.553Z,14.30
2018-05-15T05:18:00.800Z,14.40
2018-05-15T05:20:28.224Z,14.30
2018-05-15T05:22:55.683Z,14.50
2018-05-15T05:25:23.135Z,14.50
2018-05-15T05:27:50.597Z,14.60
2018-05-15T05:30:18.045Z,14.60
2018-05-15T05:32:45.506Z,14.50
2018-05-15T05:35:12.953Z,14.40
2018-05-15T05:37:40.419Z,15.00
2018-05-15T05:40:07.938Z,14.50
2018-05-15T05:42:35.340Z,14.80
2018-05-15T05:45:02.787Z,14.60
2018-05-15T05:47:30.251Z,14.60
2018-05-15T05:49:57.704Z,14.70
2018-05-15T05:52:25.149Z,14.60
2018-05-15T05:54:52.605Z,14.60
2018-05-15T05:57:20.818Z,14.60
2018-05-15T05:59:48.283Z,14.60
2018-05-15T06:02:15.751Z,14.70
2018-05-15T06:04:43.207Z,14.70
2018-05-15T06:07:10.647Z,14.80
2018-05-15T06:09:38.098Z,14.90
2018-05-15T06:12:05.551Z,14.80
2018-05-15T06:14:33.000Z,14.90
2018-05-15T06:17:00.461Z,14.90
2018-05-15T06:19:27.912Z,14.90
2018-05-15T06:21:55.355Z,15.00
2018-05-15T06:24:22.796Z,15.10
2018-05-15T06:26:50.258Z,15.10
2018-05-15T06:29:17.705Z,15.10
2018-05-15T06:31:45.165Z,14.90
2018-05-15T06:34:12.610Z,14.80
2018-05-15T06:36:40.071Z,14.90
2018-05-15T06:39:07.533Z,15.00
2018-05-15T06:41:34.998Z,15.10
2018-05-15T06:44:02.457Z,15.20
2018-05-15T06:46:30.666Z,15.20
2018-05-15T06:48:58.119Z,15.20
2018-05-15T06:51:25.584Z,15.30
2018-05-15T06:53:53.026Z,15.50
2018-05-15T06:56:20.497Z,15.50
2018-05-15T06:58:47.960Z,15.50
2018-05-15T07:01:15.416Z,15.50
2018-05-15T07:03:42.878Z,15.40
2018-05-15T07:06:10.336Z,15.50
2018-05-15T07:08:37.797Z,15.50
2018-05-15T07:11:05.248Z,15.50
2018-05-15T07:13:32.710Z,15.50
2018-05-15T07:16:00.151Z,15.50
2018-05-15T07:18:27.601Z,15.50
2018-05-15T07:20:55.048Z,15.50
2018-05-15T07:23:22.504Z,15.50
2018-05-15T07:25:49.962Z,15.50
2018-05-15T07:28:17.418Z,15.50
2018-05-15T07:30:44.867Z,15.50
2018-05-15T07:33:12.383Z,15.60
2018-05-15T07:35:39.767Z,15.50
2018-05-15T07:38:07.215Z,15.80
2018-05-15T07:40:34.684Z,15.80
2018-05-15T07:43:02.137Z,15.60
2018-05-15T07:45:29.614Z,15.80
2018-05-15T07:47:57.078Z,15.90
2018-05-15T07:50:24.536Z,15.90
2018-05-15T07:52:51.989Z,15.90
2018-05-15T07:55:19.434Z,16.00
2018-05-15T07:57:46.894Z,15.90
2018-05-15T08:00:14.429Z,16.00
2018-05-15T08:02:41.818Z,16.00
2018-05-15T08:05:09.281Z,16.00
2018-05-15T08:07:36.728Z,16.10
2018-05-15T08:10:04.179Z,16.20
2018-05-15T08:12:31.629Z,16.20
2018-05-15T08:14:59.074Z,16.30
2018-05-15T08:17:26.523Z,16.40
2018-05-15T08:19:53.978Z,16.50
2018-05-15T08:22:21.467Z,16.60
2018-05-15T08:24:48.879Z,16.80
2018-05-15T08:27:16.336Z,16.80
2018-05-15T08:29:44.544Z,16.70
2018-05-15T08:32:12.014Z,16.70
2018-05-15T08:34:39.477Z,16.80
2018-05-15T08:37:06.923Z,16.80
2018-05-15T08:39:34.375Z,16.80
2018-05-15T08:42:01.821Z,16.70
2018-05-15T08:44:29.283Z,17.20
2018-05-15T08:46:56.735Z,17.10
2018-05-15T08:49:24.960Z,17.10
2018-05-15T08:51:52.402Z,17.00
2018-05-15T08:54:19.852Z,17.20
2018-05-15T08:56:47.864Z,17.20
2018-05-15T08:59:15.977Z,17.20
2018-05-15T09:01:43.431Z,17.20
2018-05-15T09:04:10.893Z,17.20
2018-05-15T09:06:38.330Z,17.20
2018-05-15T09:09:05.799Z,17.40
2018-05-15T09:11:33.251Z,17.50
2018-05-15T09:14:00.706Z,17.50
2018-05-15T09:16:28.151Z,17.50
2018-05-15T09:18:55.602Z,17.60
2018-05-15T09:21:23.047Z,17.60
2018-05-15T09:23:51.239Z,17.60
2018-05-15T09:26:18.704Z,17.50
2018-05-15T09:28:46.146Z,17.50
2018-05-15T09:31:13.600Z,17.50
2018-05-15T09:33:41.043Z,17.50
2018-05-15T09:36:08.486Z,17.50
2018-05-15T09:38:36.699Z,17.40
2018-05-15T09:41:04.160Z,17.40
2018-05-15T09:46:38.880Z,16.90
2018-05-15T09:49:06.330Z,16.80
2018-05-15T09:51:34.568Z,16.60
2018-05-15T09:54:02.053Z,16.60
2018-05-15T09:56:30.280Z,16.40
2018-05-15T09:58:57.726Z,16.40
2018-05-15T10:01:25.187Z,16.40
2018-05-15T10:03:52.634Z,16.40
2018-05-15T10:06:20.078Z,16.50
2018-05-15T10:08:47.530Z,16.60
2018-05-15T10:11:14.978Z,16.70
2018-05-15T10:13:42.495Z,16.90
2018-05-15T10:16:09.949Z,16.90
2018-05-15T10:18:37.400Z,16.90
2018-05-15T10:21:04.912Z,16.80
2018-05-15T10:23:32.359Z,16.70
2018-05-15T10:26:00.579Z,16.30
2018-05-15T10:28:28.043Z,16.30
2018-05-15T10:30:55.491Z,16.00
2018-05-15T10:33:22.943Z,15.90
2018-05-15T10:35:50.438Z,15.80
2018-05-15T10:38:17.898Z,15.80
2018-05-15T10:40:45.372Z,15.80
2018-05-15T10:43:13.591Z,15.90
2018-05-15T10:45:41.047Z,16.00
2018-05-15T10:48:08.504Z,16.00
2018-05-15T10:50:35.965Z,16.10
2018-05-15T10:53:03.420Z,16.20
2018-05-15T10:55:30.902Z,16.30
2018-05-15T10:57:58.362Z,16.60
2018-05-15T11:00:25.820Z,16.70
2018-05-15T11:02:53.267Z,16.90
2018-05-15T11:05:20.728Z,17.00
2018-05-15T11:07:48.170Z,17.20
2018-05-15T11:10:15.626Z,17.40
2018-05-15T11:12:43.188Z,17.50
2018-05-15T11:15:10.550Z,17.60
2018-05-15T11:17:38.002Z,17.70
2018-05-15T11:20:17.341Z,17.80
2018-05-15T11:22:56.745Z,17.90
2018-05-15T11:25:24.193Z,18.10
2018-05-15T11:27:51.626Z,18.10
2018-05-15T11:30:19.859Z,18.20
2018-05-15T11:32:47.310Z,18.10
2018-05-15T11:35:16.172Z,18.20
2018-05-15T11:37:43.626Z,18.20
2018-05-15T11:40:11.096Z,18.10
2018-05-15T11:42:38.561Z,18.70
2018-05-15T11:45:06.007Z,18.20
2018-05-15T11:47:33.554Z,18.20
2018-05-15T11:50:01.609Z,18.30
2018-05-15T11:52:28.891Z,18.30
2018-05-15T11:54:55.816Z,18.30
2018-05-15T11:57:24.166Z,18.30
2018-05-15T11:59:51.632Z,18.20
2018-05-15T12:02:19.191Z,18.10
2018-05-15T12:04:46.555Z,18.00
2018-05-15T12:07:13.999Z,17.90
2018-05-15T12:09:42.218Z,17.90
2018-05-15T12:12:09.658Z,17.80
2018-05-15T12:14:37.117Z,17.90
2018-05-15T12:17:04.572Z,18.00
2018-05-15T12:19:32.034Z,18.10
2018-05-15T12:21:59.480Z,18.10
2018-05-15T12:24:27.011Z,18.10
2018-05-15T12:26:54.376Z,18.20
2018-05-15T12:29:22.588Z,18.20
2018-05-15T12:31:50.024Z,18.20
2018-05-15T12:34:17.474Z,18.10
2018-05-15T12:36:44.911Z,17.80
2018-05-15T12:39:13.133Z,17.50
2018-05-15T12:41:40.648Z,17.30
2018-05-15T12:44:08.020Z,17.30
2018-05-15T12:46:35.874Z,17.30
2018-05-15T12:49:04.094Z,17.40
2018-05-15T12:51:31.550Z,17.30
2018-05-15T12:53:58.992Z,17.40
2018-05-15T12:56:26.445Z,17.50
2018-05-15T12:58:53.897Z,17.50
2018-05-15T13:01:21.365Z,17.50
2018-05-15T13:03:48.809Z,17.40
2018-05-15T13:06:16.271Z,17.30
2018-05-15T13:08:43.727Z,17.30
2018-05-15T13:11:11.174Z,17.30
2018-05-15T13:13:38.630Z,17.20
2018-05-15T13:16:06.082Z,17.20
2018-05-15T13:18:33.591Z,17.20
2018-05-15T13:21:01.022Z,17.20
2018-05-15T13:23:28.475Z,17.20
2018-05-15T13:25:55.928Z,17.20
2018-05-15T13:28:23.378Z,17.20
2018-05-15T13:30:50.834Z,16.90
2018-05-15T13:33:18.293Z,16.80
2018-05-15T13:35:45.739Z,16.40
2018-05-15T13:38:13.198Z,16.00
2018-05-15T13:40:40.656Z,15.90
2018-05-15T13:43:08.120Z,15.60
2018-05-15T13:45:35.572Z,15.60
2018-05-15T13:48:03.079Z,15.40
2018-05-15T13:50:30.528Z,15.20
2018-05-15T13:52:57.995Z,15.10
2018-05-15T13:55:25.448Z,15.10
2018-05-15T13:57:52.912Z,15.10
2018-05-15T14:00:20.353Z,15.10
2018-05-15T14:02:47.828Z,15.00
2018-05-15T14:05:15.273Z,15.00
2018-05-15T14:07:42.724Z,15.10
2018-05-15T14:10:10.196Z,15.10
2018-05-15T14:12:37.671Z,15.20
2018-05-15T14:15:05.092Z,15.20
2018-05-15T14:17:32.548Z,15.20
2018-05-15T14:19:59.994Z,15.20
2018-05-15T14:22:27.450Z,15.10
2018-05-15T14:24:55.653Z,15.00
2018-05-15T14:27:23.120Z,14.90
2018-05-15T14:29:50.565Z,15.00
2018-05-15T14:32:18.124Z,14.80
2018-05-15T14:34:45.588Z,14.90
2018-05-15T14:37:13.031Z,14.80
2018-05-15T14:39:40.478Z,14.70
2018-05-15T14:42:19.756Z,14.90
2018-05-15T14:44:47.976Z,14.60
2018-05-15T14:47:15.435Z,14.60
2018-05-15T14:49:42.887Z,14.50
2018-05-15T14:52:10.343Z,14.60
2018-05-15T14:54:37.802Z,14.60
2018-05-15T14:57:05.264Z,14.70
2018-05-15T14:59:32.722Z,14.70
2018-05-15T15:02:00.192Z,14.70
2018-05-15T15:04:27.647Z,14.80
2018-05-15T15:06:55.111Z,14.80
2018-05-15T15:09:22.580Z,15.00
2018-05-15T15:11:50.824Z,14.80
2018-05-15T15:14:18.274Z,14.80
2018-05-15T15:16:45.723Z,14.80
2018-05-15T15:19:13.162Z,14.80
2018-05-15T15:21:40.619Z,14.90
2018-05-15T15:24:08.083Z,14.90
2018-05-15T15:26:35.541Z,14.90
2018-05-15T15:29:02.973Z,15.00
2018-05-15T15:31:30.434Z,15.10
2018-05-15T15:33:57.879Z,15.00
2018-05-15T15:36:26.090Z,14.90
2018-05-15T15:38:53.536Z,14.90
2018-05-15T15:41:20.975Z,14.90
2018-05-15T15:43:48.474Z,15.30
2018-05-15T15:46:15.882Z,15.00
2018-05-15T15:48:43.347Z,15.00
2018-05-15T15:51:11.562Z,14.50
2018-05-15T15:53:39.016Z,15.10
2018-05-15T15:56:06.475Z,15.10
2018-05-15T15:58:33.927Z,15.00
2018-05-15T16:01:01.380Z,15.10
2018-05-15T16:03:28.844Z,15.10
2018-05-15T16:05:56.295Z,15.30
2018-05-15T16:08:23.741Z,15.30
2018-05-15T16:10:51.189Z,15.30
2018-05-15T16:13:18.656Z,15.30
2018-05-15T16:15:46.118Z,15.40
2018-05-15T16:18:13.562Z,15.40
2018-05-15T16:20:41.014Z,15.50
2018-05-15T16:23:08.457Z,15.50
2018-05-15T16:25:35.912Z,15.50
2018-05-15T16:28:03.359Z,15.50
2018-05-15T16:30:31.584Z,15.60
2018-05-15T16:32:59.025Z,15.50
2018-05-15T16:35:27.238Z,15.80
2018-05-15T16:37:54.675Z,15.70
2018-05-15T16:40:22.131Z,15.70
2018-05-15T16:42:49.575Z,15.70
2018-05-15T16:45:17.020Z,15.60
2018-05-15T16:47:44.481Z,15.70
2018-05-15T16:50:11.928Z,15.80
2018-05-15T16:52:39.388Z,15.90
2018-05-15T16:55:07.589Z,15.70
2018-05-15T16:57:35.039Z,15.60
2018-05-15T17:00:02.485Z,15.60
2018-05-15T17:02:29.930Z,15.60
2018-05-15T17:04:57.367Z,15.70
2018-05-15T17:07:24.823Z,15.80
2018-05-15T17:09:52.256Z,15.90
2018-05-15T17:12:20.470Z,15.90
2018-05-15T17:14:47.903Z,15.90
2018-05-15T17:17:15.344Z,16.00
2018-05-15T17:19:43.552Z,16.00
2018-05-15T17:22:11.004Z,16.10
2018-05-15T17:24:38.466Z,16.10
2018-05-15T17:27:05.903Z,16.10
2018-05-15T17:29:34.114Z,16.00
2018-05-15T17:32:01.557Z,16.00
2018-05-15T17:34:29.001Z,16.00
2018-05-15T17:36:56.472Z,16.10
2018-05-15T17:39:24.663Z,16.10
2018-05-15T17:41:52.111Z,16.10
2018-05-15T17:44:19.548Z,16.00
2018-05-15T17:46:46.991Z,16.30
2018-05-15T17:49:14.445Z,16.10
2018-05-15T17:51:42.647Z,16.00
2018-05-15T17:54:10.097Z,16.00
2018-05-15T17:56:37.536Z,16.00
2018-05-15T17:59:04.983Z,16.00
2018-05-15T18:01:33.191Z,15.90
2018-05-15T18:04:00.649Z,15.90
2018-05-15T18:06:28.093Z,15.90
2018-05-15T18:08:55.718Z,15.90
2018-05-15T18:11:23.202Z,15.80
2018-05-15T18:13:50.681Z,15.70
2018-05-15T18:16:18.123Z,15.70
2018-05-15T18:18:45.582Z,15.70
2018-05-15T18:21:13.031Z,15.70
2018-05-15T18:23:40.467Z,15.60
2018-05-15T18:26:08.705Z,15.50
2018-05-15T18:28:36.148Z,15.40
2018-05-15T18:31:03.600Z,15.50
2018-05-15T18:33:31.080Z,15.40
2018-05-15T18:35:58.530Z,15.40
2018-05-15T18:38:25.972Z,15.40
2018-05-15T18:40:54.177Z,15.40
2018-05-15T18:43:21.624Z,15.30
2018-05-15T18:45:49.053Z,15.40
2018-05-15T18:48:16.524Z,15.40
2018-05-15T18:50:43.996Z,15.40
2018-05-15T18:53:11.446Z,15.40
2018-05-15T18:55:38.902Z,15.40
2018-05-15T18:58:06.381Z,15.40
2018-05-15T19:00:33.816Z,15.30
2018-05-15T19:03:02.423Z,14.80
2018-05-15T19:05:29.856Z,14.80
2018-05-15T19:07:58.076Z,14.50
2018-05-15T19:10:25.529Z,14.40
2018-05-15T19:12:52.982Z,14.50
2018-05-15T19:15:21.191Z,14.40
2018-05-15T19:17:48.634Z,14.40
2018-05-15T19:20:16.078Z,14.30
2018-05-15T19:22:44.304Z,13.80
2018-05-15T19:25:11.747Z,13.80
2018-05-15T19:27:39.195Z,13.70
2018-05-15T19:30:06.669Z,13.60
2018-05-15T19:32:39.137Z,13.50
2018-05-15T19:35:07.351Z,13.50
2018-05-15T19:37:35.562Z,13.50
2018-05-15T19:40:08.721Z,13.40
2018-05-15T19:42:36.182Z,13.60
2018-05-15T19:45:04.512Z,13.60
2018-05-15T19:47:31.848Z,13.60
2018-05-15T19:49:59.289Z,13.60
2018-05-15T19:52:26.730Z,13.70
2018-05-15T19:54:54.943Z,13.50
2018-05-15T19:57:22.386Z,13.50
2018-05-15T19:59:49.852Z,13.50
2018-05-15T20:02:18.071Z,13.60
2018-05-15T20:04:46.296Z,13.50
2018-05-15T20:07:13.756Z,13.40
2018-05-15T20:09:41.242Z,13.50
2018-05-15T20:12:08.686Z,13.50
2018-05-15T20:14:36.139Z,13.50
2018-05-15T20:17:03.581Z,13.60
2018-05-15T20:19:31.043Z,13.50
2018-05-15T20:21:58.498Z,13.50
2018-05-15T20:24:25.963Z,13.50
2018-05-15T20:26:53.431Z,13.50
2018-05-15T20:29:20.896Z,13.50
2018-05-15T20:31:48.345Z,13.50
2018-05-15T20:34:15.809Z,13.40
2018-05-15T20:36:44.514Z,13.20
2018-05-15T20:39:18.164Z,13.10
2018-05-15T20:41:56.819Z,13.10
2018-05-15T20:44:24.260Z,13.00
2018-05-15T20:46:52.738Z,14.10
2018-05-15T20:49:22.117Z,13.10
2018-05-15T20:51:49.567Z,13.20
2018-05-15T20:54:19.915Z,13.10
2018-05-15T20:56:47.356Z,13.30
2018-05-15T20:59:18.044Z,13.10
2018-05-15T21:01:46.264Z,13.10
2018-05-15T21:04:13.715Z,13.00
2018-05-15T21:06:41.153Z,13.10
2018-05-15T21:09:08.619Z,13.10
2018-05-15T21:11:36.062Z,13.10
2018-05-15T21:14:04.276Z,12.80
2018-05-15T21:16:31.732Z,12.80
2018-05-15T21:18:59.211Z,12.90
2018-05-15T21:21:26.665Z,12.90
2018-05-15T21:23:54.125Z,12.90
2018-05-15T21:26:21.584Z,12.90
2018-05-15T21:28:49.043Z,12.80
2018-05-15T21:31:16.493Z,12.80
2018-05-15T21:33:43.940Z,12.90
2018-05-15T21:36:11.407Z,12.90
2018-05-15T21:38:38.929Z,12.90
2018-05-15T21:41:06.453Z,12.80
2018-05-15T21:43:33.991Z,12.70
2018-05-15T21:46:01.564Z,12.80
2018-05-15T21:48:29.029Z,12.70
2018-05-15T21:50:57.243Z,12.70
2018-05-15T21:53:24.690Z,12.60
2018-05-15T21:55:52.138Z,12.70
2018-05-15T21:58:19.595Z,12.70
2018-05-15T22:00:47.051Z,12.70
2018-05-15T22:03:14.496Z,12.80
2018-05-15T22:05:42.719Z,12.70
2018-05-15T22:08:10.187Z,12.70
2018-05-15T22:10:37.648Z,12.70
2018-05-15T22:13:17.028Z,12.80
2018-05-15T22:15:56.478Z,12.80
2018-05-15T22:18:35.803Z,12.80
2018-05-15T22:21:14.914Z,12.80
2018-05-15T22:23:42.636Z,12.80
2018-05-15T22:26:10.091Z,12.80
2018-05-15T22:28:37.541Z,12.90
2018-05-15T22:31:04.986Z,12.80
2018-05-15T22:33:32.450Z,12.80
2018-05-15T22:35:59.891Z,12.90
2018-05-15T22:38:27.333Z,12.90
2018-05-15T22:40:54.791Z,13.00
2018-05-15T22:43:22.249Z,13.00
2018-05-15T22:45:49.889Z,12.90
2018-05-15T22:48:17.361Z,12.90
2018-05-15T22:50:44.810Z,12.90
2018-05-15T22:53:13.079Z,12.80
2018-05-15T22:55:41.338Z,12.90
2018-05-15T22:58:08.791Z,12.80
2018-05-15T23:00:36.256Z,12.80
2018-05-15T23:03:03.701Z,12.90
2018-05-15T23:05:31.180Z,12.90
2018-05-15T23:07:59.394Z,12.90
2018-05-15T23:10:26.861Z,12.80
2018-05-15T23:12:55.295Z,12.90
2018-05-15T23:15:23.530Z,12.90
2018-05-15T23:17:50.979Z,12.90
2018-05-15T23:20:18.426Z,12.90
2018-05-15T23:22:45.870Z,12.90
2018-05-15T23:25:13.314Z,12.90
2018-05-15T23:27:40.764Z,12.90
2018-05-15T23:30:08.475Z,12.90
2018-05-15T23:32:35.920Z,12.80
2018-05-15T23:35:03.359Z,12.80
2018-05-15T23:37:30.811Z,12.80
2018-05-15T23:39:58.275Z,12.80
2018-05-15T23:42:25.721Z,12.80
2018-05-15T23:44:53.175Z,12.70
2018-05-15T23:47:20.631Z,12.70
2018-05-15T23:49:48.087Z,12.70
2018-05-15T23:52:15.552Z,12.70
2018-05-15T23:54:43.002Z,12.70
2018-05-15T23:57:10.456Z,12.60
2018-05-15T23:59:37.907Z,12.50
